sensor_id;sensor_type;location;lat;lon;timestamp;temperature;humidity
32470;DHT22;18925;48.356;10.864;2022-08-19T00:00:09;18.70;99.90
32470;DHT22;18925;48.356;10.864;2022-08-19T00:00:41;18.60;99.90
32470;DHT22;18925;48.356;10.864;2022-08-19T00:01:11;18.60;99.90
32470;DHT22;18925;48.356;10.864;2022-08-19T00:01:44;18.60;99.90
32470;DHT22;18925;48.356;10.864;2022-08-19T00:02:15;18.60;99.90
32470;DHT22;18925;48.356;10.864;2022-08-19T00:02:46;18.60;99.90
32470;DHT22;18925;48.356;10.864;2022-08-19T00:03:17;18.60;99.90
32470;DHT22;18925;48.356;10.864;2022-08-19T00:03:48;18.60;99.90
32470;DHT22;18925;48.356;10.864;2022-08-19T00:04:21;18.60;99.90
32470;DHT22;18925;48.356;10.864;2022-08-19T00:04:52;18.60;99.90
32470;DHT22;18925;48.356;10.864;2022-08-19T00:05:23;18.60;99.90
32470;DHT22;18925;48.356;10.864;2022-08-19T00:05:53;18.60;99.90
32470;DHT22;18925;48.356;10.864;2022-08-19T00:06:24;18.60;99.90
32470;DHT22;18925;48.356;10.864;2022-08-19T00:06:55;18.60;99.90
32470;DHT22;18925;48.356;10.864;2022-08-19T00:07:26;18.60;99.90
32470;DHT22;18925;48.356;10.864;2022-08-19T00:07:57;18.60;99.90
32470;DHT22;18925;48.356;10.864;2022-08-19T00:08:27;18.60;99.90
32470;DHT22;18925;48.356;10.864;2022-08-19T00:08:59;18.60;99.90
32470;DHT22;18925;48.356;10.864;2022-08-19T00:09:31;18.60;99.90
32470;DHT22;18925;48.356;10.864;2022-08-19T00:10:02;18.60;99.90
32470;DHT22;18925;48.356;10.864;2022-08-19T00:10:32;18.60;99.90
32470;DHT22;18925;48.356;10.864;2022-08-19T00:11:04;18.60;99.90
32470;DHT22;18925;48.356;10.864;2022-08-19T00:11:36;18.60;99.90
32470;DHT22;18925;48.356;10.864;2022-08-19T00:12:07;18.60;99.90
32470;DHT22;18925;48.356;10.864;2022-08-19T00:12:39;18.60;99.90
32470;DHT22;18925;48.356;10.864;2022-08-19T00:13:09;18.60;99.90
32470;DHT22;18925;48.356;10.864;2022-08-19T00:13:40;18.60;99.90
32470;DHT22;18925;48.356;10.864;2022-08-19T00:14:13;18.60;99.90
32470;DHT22;18925;48.356;10.864;2022-08-19T00:14:45;18.60;99.90
32470;DHT22;18925;48.356;10.864;2022-08-19T00:15:18;18.60;99.90
32470;DHT22;18925;48.356;10.864;2022-08-19T00:15:49;18.60;99.90
32470;DHT22;18925;48.356;10.864;2022-08-19T00:16:20;18.60;99.90
32470;DHT22;18925;48.356;10.864;2022-08-19T00:16:51;18.60;99.90
32470;DHT22;18925;48.356;10.864;2022-08-19T00:17:24;18.60;99.90
32470;DHT22;18925;48.356;10.864;2022-08-19T00:17:55;18.50;99.90
32470;DHT22;18925;48.356;10.864;2022-08-19T00:18:26;18.50;99.90
32470;DHT22;18925;48.356;10.864;2022-08-19T00:18:57;18.50;99.90
32470;DHT22;18925;48.356;10.864;2022-08-19T00:19:28;18.50;99.90
32470;DHT22;18925;48.356;10.864;2022-08-19T00:19:59;18.40;99.90
32470;DHT22;18925;48.356;10.864;2022-08-19T00:20:29;18.40;99.90
32470;DHT22;18925;48.356;10.864;2022-08-19T00:21:00;18.40;99.90
32470;DHT22;18925;48.356;10.864;2022-08-19T00:21:31;18.40;99.90
32470;DHT22;18925;48.356;10.864;2022-08-19T00:22:01;18.40;99.90
32470;DHT22;18925;48.356;10.864;2022-08-19T00:22:33;18.40;99.90
32470;DHT22;18925;48.356;10.864;2022-08-19T00:23:03;18.40;99.90
32470;DHT22;18925;48.356;10.864;2022-08-19T00:23:35;18.40;99.90
32470;DHT22;18925;48.356;10.864;2022-08-19T00:24:08;18.40;99.90
32470;DHT22;18925;48.356;10.864;2022-08-19T00:24:38;18.30;99.90
32470;DHT22;18925;48.356;10.864;2022-08-19T00:25:11;18.30;99.90
32470;DHT22;18925;48.356;10.864;2022-08-19T00:25:42;18.30;99.90
32470;DHT22;18925;48.356;10.864;2022-08-19T00:26:13;18.30;99.90
32470;DHT22;18925;48.356;10.864;2022-08-19T00:26:44;18.30;99.90
32470;DHT22;18925;48.356;10.864;2022-08-19T00:27:15;18.30;99.90
32470;DHT22;18925;48.356;10.864;2022-08-19T00:27:46;18.30;99.90
32470;DHT22;18925;48.356;10.864;2022-08-19T00:28:18;18.30;99.90
32470;DHT22;18925;48.356;10.864;2022-08-19T00:28:49;18.20;99.90
32470;DHT22;18925;48.356;10.864;2022-08-19T00:29:20;18.20;99.90
32470;DHT22;18925;48.356;10.864;2022-08-19T00:29:51;18.20;99.90
32470;DHT22;18925;48.356;10.864;2022-08-19T00:30:22;18.20;99.90
32470;DHT22;18925;48.356;10.864;2022-08-19T00:30:52;18.20;99.90
32470;DHT22;18925;48.356;10.864;2022-08-19T00:31:23;18.20;99.90
32470;DHT22;18925;48.356;10.864;2022-08-19T00:31:55;18.20;99.90
32470;DHT22;18925;48.356;10.864;2022-08-19T00:32:28;18.10;99.90
32470;DHT22;18925;48.356;10.864;2022-08-19T00:32:59;18.10;99.90
32470;DHT22;18925;48.356;10.864;2022-08-19T00:33:30;18.10;99.90
32470;DHT22;18925;48.356;10.864;2022-08-19T00:34:03;18.10;99.90
32470;DHT22;18925;48.356;10.864;2022-08-19T00:34:34;18.10;99.90
32470;DHT22;18925;48.356;10.864;2022-08-19T00:35:06;18.10;99.90
32470;DHT22;18925;48.356;10.864;2022-08-19T00:35:37;18.10;99.90
32470;DHT22;18925;48.356;10.864;2022-08-19T00:36:09;18.10;99.90
32470;DHT22;18925;48.356;10.864;2022-08-19T00:36:40;18.10;99.90
32470;DHT22;18925;48.356;10.864;2022-08-19T00:37:11;18.00;99.90
32470;DHT22;18925;48.356;10.864;2022-08-19T00:37:42;18.10;99.90
32470;DHT22;18925;48.356;10.864;2022-08-19T00:38:14;18.00;99.90
32470;DHT22;18925;48.356;10.864;2022-08-19T00:38:44;18.00;99.90
32470;DHT22;18925;48.356;10.864;2022-08-19T00:39:16;18.00;99.90
32470;DHT22;18925;48.356;10.864;2022-08-19T00:39:47;18.00;99.90
32470;DHT22;18925;48.356;10.864;2022-08-19T00:40:18;18.00;99.90
32470;DHT22;18925;48.356;10.864;2022-08-19T00:40:49;18.00;99.90
32470;DHT22;18925;48.356;10.864;2022-08-19T00:41:21;18.00;99.90
32470;DHT22;18925;48.356;10.864;2022-08-19T00:41:52;18.00;99.90
32470;DHT22;18925;48.356;10.864;2022-08-19T00:42:22;18.00;99.90
32470;DHT22;18925;48.356;10.864;2022-08-19T00:42:53;18.00;99.90
32470;DHT22;18925;48.356;10.864;2022-08-19T00:43:26;18.00;99.90
32470;DHT22;18925;48.356;10.864;2022-08-19T00:44:29;18.00;99.90
32470;DHT22;18925;48.356;10.864;2022-08-19T00:45:00;18.00;99.90
32470;DHT22;18925;48.356;10.864;2022-08-19T00:45:31;17.90;99.90
32470;DHT22;18925;48.356;10.864;2022-08-19T00:46:02;17.90;99.90
32470;DHT22;18925;48.356;10.864;2022-08-19T00:46:37;17.90;99.90
32470;DHT22;18925;48.356;10.864;2022-08-19T00:47:08;18.00;99.90
32470;DHT22;18925;48.356;10.864;2022-08-19T00:47:39;18.00;99.90
32470;DHT22;18925;48.356;10.864;2022-08-19T00:48:10;18.00;99.90
32470;DHT22;18925;48.356;10.864;2022-08-19T00:48:41;18.00;99.90
32470;DHT22;18925;48.356;10.864;2022-08-19T00:49:16;17.90;99.90
32470;DHT22;18925;48.356;10.864;2022-08-19T00:49:53;17.90;99.90
32470;DHT22;18925;48.356;10.864;2022-08-19T00:50:24;17.90;99.90
32470;DHT22;18925;48.356;10.864;2022-08-19T00:50:55;17.90;99.90
32470;DHT22;18925;48.356;10.864;2022-08-19T00:51:27;17.90;99.90
32470;DHT22;18925;48.356;10.864;2022-08-19T00:52:06;17.90;99.90
32470;DHT22;18925;48.356;10.864;2022-08-19T00:52:41;17.90;99.90
32470;DHT22;18925;48.356;10.864;2022-08-19T00:53:16;17.80;99.90
32470;DHT22;18925;48.356;10.864;2022-08-19T00:53:49;17.90;99.90
32470;DHT22;18925;48.356;10.864;2022-08-19T00:54:21;17.90;99.90
32470;DHT22;18925;48.356;10.864;2022-08-19T00:54:53;17.80;99.90
32470;DHT22;18925;48.356;10.864;2022-08-19T00:55:26;17.80;99.90
32470;DHT22;18925;48.356;10.864;2022-08-19T00:56:00;17.90;99.90
32470;DHT22;18925;48.356;10.864;2022-08-19T00:56:33;17.90;99.90
32470;DHT22;18925;48.356;10.864;2022-08-19T00:57:07;17.90;99.90
32470;DHT22;18925;48.356;10.864;2022-08-19T00:57:42;17.80;99.90
32470;DHT22;18925;48.356;10.864;2022-08-19T00:58:20;17.80;99.90
32470;DHT22;18925;48.356;10.864;2022-08-19T00:58:55;17.80;99.90
32470;DHT22;18925;48.356;10.864;2022-08-19T00:59:28;17.80;99.90
32470;DHT22;18925;48.356;10.864;2022-08-19T01:00:00;17.80;99.90
32470;DHT22;18925;48.356;10.864;2022-08-19T01:00:34;17.80;99.90
32470;DHT22;18925;48.356;10.864;2022-08-19T01:01:08;17.80;99.90
32470;DHT22;18925;48.356;10.864;2022-08-19T01:01:41;17.80;99.90
32470;DHT22;18925;48.356;10.864;2022-08-19T01:02:12;17.80;99.90
32470;DHT22;18925;48.356;10.864;2022-08-19T01:02:43;17.90;99.90
32470;DHT22;18925;48.356;10.864;2022-08-19T01:03:18;17.90;99.90
32470;DHT22;18925;48.356;10.864;2022-08-19T01:03:50;17.90;99.90
32470;DHT22;18925;48.356;10.864;2022-08-19T01:04:20;17.90;99.90
32470;DHT22;18925;48.356;10.864;2022-08-19T01:04:51;17.90;99.90
32470;DHT22;18925;48.356;10.864;2022-08-19T01:05:27;17.90;99.90
32470;DHT22;18925;48.356;10.864;2022-08-19T01:05:59;17.90;99.90
32470;DHT22;18925;48.356;10.864;2022-08-19T01:06:31;17.90;99.90
32470;DHT22;18925;48.356;10.864;2022-08-19T01:07:02;17.90;99.90
32470;DHT22;18925;48.356;10.864;2022-08-19T01:07:34;17.90;99.90
32470;DHT22;18925;48.356;10.864;2022-08-19T01:08:06;17.90;99.90
32470;DHT22;18925;48.356;10.864;2022-08-19T01:08:37;17.90;99.90
32470;DHT22;18925;48.356;10.864;2022-08-19T01:09:08;17.90;99.90
32470;DHT22;18925;48.356;10.864;2022-08-19T01:09:39;17.80;99.90
32470;DHT22;18925;48.356;10.864;2022-08-19T01:10:16;17.80;99.90
32470;DHT22;18925;48.356;10.864;2022-08-19T01:10:51;17.80;99.90
32470;DHT22;18925;48.356;10.864;2022-08-19T01:11:22;17.80;99.90
32470;DHT22;18925;48.356;10.864;2022-08-19T01:11:53;17.80;99.90
32470;DHT22;18925;48.356;10.864;2022-08-19T01:12:24;17.80;99.90
32470;DHT22;18925;48.356;10.864;2022-08-19T01:12:55;17.80;99.90
32470;DHT22;18925;48.356;10.864;2022-08-19T01:13:32;17.80;99.90
32470;DHT22;18925;48.356;10.864;2022-08-19T01:14:03;17.80;99.90
32470;DHT22;18925;48.356;10.864;2022-08-19T01:14:35;17.80;99.90
32470;DHT22;18925;48.356;10.864;2022-08-19T01:15:09;17.80;99.90
32470;DHT22;18925;48.356;10.864;2022-08-19T01:15:46;17.80;99.90
32470;DHT22;18925;48.356;10.864;2022-08-19T01:16:21;17.80;99.90
32470;DHT22;18925;48.356;10.864;2022-08-19T01:16:54;17.80;99.90
32470;DHT22;18925;48.356;10.864;2022-08-19T01:17:26;17.80;99.90
32470;DHT22;18925;48.356;10.864;2022-08-19T01:18:00;17.80;99.90
32470;DHT22;18925;48.356;10.864;2022-08-19T01:18:32;17.80;99.90
32470;DHT22;18925;48.356;10.864;2022-08-19T01:19:29;17.80;99.90
32470;DHT22;18925;48.356;10.864;2022-08-19T01:20:03;17.80;99.90
32470;DHT22;18925;48.356;10.864;2022-08-19T01:20:34;17.80;99.90
32470;DHT22;18925;48.356;10.864;2022-08-19T01:21:12;17.80;99.90
32470;DHT22;18925;48.356;10.864;2022-08-19T01:21:53;17.80;99.90
32470;DHT22;18925;48.356;10.864;2022-08-19T01:22:27;17.80;99.90
32470;DHT22;18925;48.356;10.864;2022-08-19T01:22:58;17.80;99.90
32470;DHT22;18925;48.356;10.864;2022-08-19T01:23:29;17.80;99.90
32470;DHT22;18925;48.356;10.864;2022-08-19T01:24:15;17.80;99.90
32470;DHT22;18925;48.356;10.864;2022-08-19T01:24:46;17.80;99.90
32470;DHT22;18925;48.356;10.864;2022-08-19T01:25:19;17.80;99.90
32470;DHT22;18925;48.356;10.864;2022-08-19T01:25:52;17.80;99.90
32470;DHT22;18925;48.356;10.864;2022-08-19T01:26:25;17.80;99.90
32470;DHT22;18925;48.356;10.864;2022-08-19T01:26:57;17.80;99.90
32470;DHT22;18925;48.356;10.864;2022-08-19T01:27:40;17.80;99.90
32470;DHT22;18925;48.356;10.864;2022-08-19T01:28:51;17.80;99.90
32470;DHT22;18925;48.356;10.864;2022-08-19T01:29:22;17.80;99.90
32470;DHT22;18925;48.356;10.864;2022-08-19T01:29:52;17.80;99.90
32470;DHT22;18925;48.356;10.864;2022-08-19T01:30:30;17.80;99.90
32470;DHT22;18925;48.356;10.864;2022-08-19T01:31:02;17.80;99.90
32470;DHT22;18925;48.356;10.864;2022-08-19T01:31:33;17.80;99.90
32470;DHT22;18925;48.356;10.864;2022-08-19T01:32:04;17.80;99.90
32470;DHT22;18925;48.356;10.864;2022-08-19T01:32:34;17.80;99.90
32470;DHT22;18925;48.356;10.864;2022-08-19T01:33:05;17.80;99.90
32470;DHT22;18925;48.356;10.864;2022-08-19T01:33:36;17.80;99.90
32470;DHT22;18925;48.356;10.864;2022-08-19T01:34:07;17.70;99.90
32470;DHT22;18925;48.356;10.864;2022-08-19T01:34:38;17.80;99.90
32470;DHT22;18925;48.356;10.864;2022-08-19T01:35:11;17.80;99.90
32470;DHT22;18925;48.356;10.864;2022-08-19T01:35:42;17.80;99.90
32470;DHT22;18925;48.356;10.864;2022-08-19T01:36:22;17.80;99.90
32470;DHT22;18925;48.356;10.864;2022-08-19T01:36:53;17.90;99.90
32470;DHT22;18925;48.356;10.864;2022-08-19T01:37:23;17.90;99.90
32470;DHT22;18925;48.356;10.864;2022-08-19T01:38:00;17.80;99.90
32470;DHT22;18925;48.356;10.864;2022-08-19T01:38:36;17.90;99.90
32470;DHT22;18925;48.356;10.864;2022-08-19T01:39:09;17.90;99.90
32470;DHT22;18925;48.356;10.864;2022-08-19T01:39:41;17.90;99.90
32470;DHT22;18925;48.356;10.864;2022-08-19T01:40:12;17.80;99.90
32470;DHT22;18925;48.356;10.864;2022-08-19T01:40:43;17.80;99.90
32470;DHT22;18925;48.356;10.864;2022-08-19T01:41:14;17.80;99.90
32470;DHT22;18925;48.356;10.864;2022-08-19T01:41:46;17.80;99.90
32470;DHT22;18925;48.356;10.864;2022-08-19T01:42:16;17.80;99.90
32470;DHT22;18925;48.356;10.864;2022-08-19T01:42:49;17.80;99.90
32470;DHT22;18925;48.356;10.864;2022-08-19T01:43:20;17.80;99.90
32470;DHT22;18925;48.356;10.864;2022-08-19T01:43:52;17.80;99.90
32470;DHT22;18925;48.356;10.864;2022-08-19T01:44:22;17.80;99.90
32470;DHT22;18925;48.356;10.864;2022-08-19T01:44:54;17.90;99.90
32470;DHT22;18925;48.356;10.864;2022-08-19T01:45:27;17.90;99.90
32470;DHT22;18925;48.356;10.864;2022-08-19T01:45:58;17.90;99.90
32470;DHT22;18925;48.356;10.864;2022-08-19T01:46:29;17.90;99.90
32470;DHT22;18925;48.356;10.864;2022-08-19T01:47:00;17.90;99.90
32470;DHT22;18925;48.356;10.864;2022-08-19T01:47:31;17.80;99.90
32470;DHT22;18925;48.356;10.864;2022-08-19T01:48:02;17.90;99.90
32470;DHT22;18925;48.356;10.864;2022-08-19T01:48:39;17.80;99.90
32470;DHT22;18925;48.356;10.864;2022-08-19T01:49:10;17.80;99.90
32470;DHT22;18925;48.356;10.864;2022-08-19T01:49:41;17.80;99.90
32470;DHT22;18925;48.356;10.864;2022-08-19T01:50:12;17.80;99.90
32470;DHT22;18925;48.356;10.864;2022-08-19T01:50:43;17.80;99.90
32470;DHT22;18925;48.356;10.864;2022-08-19T01:51:14;17.80;99.90
32470;DHT22;18925;48.356;10.864;2022-08-19T01:51:46;17.80;99.90
32470;DHT22;18925;48.356;10.864;2022-08-19T01:52:16;17.80;99.90
32470;DHT22;18925;48.356;10.864;2022-08-19T01:52:47;17.80;99.90
32470;DHT22;18925;48.356;10.864;2022-08-19T01:53:18;17.80;99.90
32470;DHT22;18925;48.356;10.864;2022-08-19T01:53:49;17.80;99.90
32470;DHT22;18925;48.356;10.864;2022-08-19T01:54:22;17.80;99.90
32470;DHT22;18925;48.356;10.864;2022-08-19T01:54:53;17.80;99.90
32470;DHT22;18925;48.356;10.864;2022-08-19T01:55:24;17.90;99.90
32470;DHT22;18925;48.356;10.864;2022-08-19T01:55:54;17.90;99.90
32470;DHT22;18925;48.356;10.864;2022-08-19T01:56:25;17.90;99.90
32470;DHT22;18925;48.356;10.864;2022-08-19T01:57:07;17.90;99.90
32470;DHT22;18925;48.356;10.864;2022-08-19T01:57:41;17.90;99.90
32470;DHT22;18925;48.356;10.864;2022-08-19T01:58:18;17.90;99.90
32470;DHT22;18925;48.356;10.864;2022-08-19T01:58:58;17.90;99.90
32470;DHT22;18925;48.356;10.864;2022-08-19T01:59:31;17.90;99.90
32470;DHT22;18925;48.356;10.864;2022-08-19T02:00:06;17.90;99.90
32470;DHT22;18925;48.356;10.864;2022-08-19T02:00:37;17.90;99.90
32470;DHT22;18925;48.356;10.864;2022-08-19T02:01:08;17.90;99.90
32470;DHT22;18925;48.356;10.864;2022-08-19T02:01:39;17.90;99.90
32470;DHT22;18925;48.356;10.864;2022-08-19T02:02:10;17.90;99.90
32470;DHT22;18925;48.356;10.864;2022-08-19T02:02:41;17.90;99.90
32470;DHT22;18925;48.356;10.864;2022-08-19T02:03:12;17.90;99.90
32470;DHT22;18925;48.356;10.864;2022-08-19T02:03:43;17.90;99.90
32470;DHT22;18925;48.356;10.864;2022-08-19T02:04:13;17.80;99.90
32470;DHT22;18925;48.356;10.864;2022-08-19T02:04:44;17.90;99.90
32470;DHT22;18925;48.356;10.864;2022-08-19T02:05:16;17.90;99.90
32470;DHT22;18925;48.356;10.864;2022-08-19T02:05:55;17.90;99.90
32470;DHT22;18925;48.356;10.864;2022-08-19T02:06:26;17.90;99.90
32470;DHT22;18925;48.356;10.864;2022-08-19T02:06:57;17.90;99.90
32470;DHT22;18925;48.356;10.864;2022-08-19T02:07:28;17.90;99.90
32470;DHT22;18925;48.356;10.864;2022-08-19T02:07:59;17.90;99.90
32470;DHT22;18925;48.356;10.864;2022-08-19T02:08:31;17.90;99.90
32470;DHT22;18925;48.356;10.864;2022-08-19T02:09:04;17.90;99.90
32470;DHT22;18925;48.356;10.864;2022-08-19T02:09:35;17.90;99.90
32470;DHT22;18925;48.356;10.864;2022-08-19T02:10:09;17.90;99.90
32470;DHT22;18925;48.356;10.864;2022-08-19T02:10:42;17.90;99.90
32470;DHT22;18925;48.356;10.864;2022-08-19T02:11:22;17.90;99.90
32470;DHT22;18925;48.356;10.864;2022-08-19T02:11:54;17.90;99.90
32470;DHT22;18925;48.356;10.864;2022-08-19T02:12:25;17.90;99.90
32470;DHT22;18925;48.356;10.864;2022-08-19T02:12:55;17.90;99.90
32470;DHT22;18925;48.356;10.864;2022-08-19T02:13:27;17.90;99.90
32470;DHT22;18925;48.356;10.864;2022-08-19T02:13:59;17.90;99.90
32470;DHT22;18925;48.356;10.864;2022-08-19T02:14:34;17.90;99.90
32470;DHT22;18925;48.356;10.864;2022-08-19T02:15:05;17.90;99.90
32470;DHT22;18925;48.356;10.864;2022-08-19T02:15:36;17.90;99.90
32470;DHT22;18925;48.356;10.864;2022-08-19T02:16:07;17.90;99.90
32470;DHT22;18925;48.356;10.864;2022-08-19T02:16:38;18.00;99.90
32470;DHT22;18925;48.356;10.864;2022-08-19T02:17:10;17.90;99.90
32470;DHT22;18925;48.356;10.864;2022-08-19T02:17:41;17.90;99.90
32470;DHT22;18925;48.356;10.864;2022-08-19T02:18:12;17.90;99.90
32470;DHT22;18925;48.356;10.864;2022-08-19T02:18:42;17.90;99.90
32470;DHT22;18925;48.356;10.864;2022-08-19T02:19:13;17.80;99.90
32470;DHT22;18925;48.356;10.864;2022-08-19T02:19:44;17.80;99.90
32470;DHT22;18925;48.356;10.864;2022-08-19T02:20:15;17.80;99.90
32470;DHT22;18925;48.356;10.864;2022-08-19T02:20:46;17.80;99.90
32470;DHT22;18925;48.356;10.864;2022-08-19T02:21:23;17.80;99.90
32470;DHT22;18925;48.356;10.864;2022-08-19T02:21:54;17.80;99.90
32470;DHT22;18925;48.356;10.864;2022-08-19T02:22:24;17.80;99.90
32470;DHT22;18925;48.356;10.864;2022-08-19T02:22:58;17.80;99.90
32470;DHT22;18925;48.356;10.864;2022-08-19T02:23:28;17.90;99.90
32470;DHT22;18925;48.356;10.864;2022-08-19T02:23:59;17.90;99.90
32470;DHT22;18925;48.356;10.864;2022-08-19T02:24:29;17.80;99.90
32470;DHT22;18925;48.356;10.864;2022-08-19T02:25:00;17.80;99.90
32470;DHT22;18925;48.356;10.864;2022-08-19T02:25:31;17.80;99.90
32470;DHT22;18925;48.356;10.864;2022-08-19T02:26:02;17.80;99.90
32470;DHT22;18925;48.356;10.864;2022-08-19T02:26:33;17.80;99.90
32470;DHT22;18925;48.356;10.864;2022-08-19T02:27:04;17.80;99.90
32470;DHT22;18925;48.356;10.864;2022-08-19T02:27:35;17.80;99.90
32470;DHT22;18925;48.356;10.864;2022-08-19T02:28:06;17.80;99.90
32470;DHT22;18925;48.356;10.864;2022-08-19T02:28:37;17.80;99.90
32470;DHT22;18925;48.356;10.864;2022-08-19T02:29:08;17.80;99.90
32470;DHT22;18925;48.356;10.864;2022-08-19T02:29:39;17.80;99.90
32470;DHT22;18925;48.356;10.864;2022-08-19T02:30:14;17.80;99.90
32470;DHT22;18925;48.356;10.864;2022-08-19T02:30:47;17.80;99.90
32470;DHT22;18925;48.356;10.864;2022-08-19T02:31:20;17.80;99.90
32470;DHT22;18925;48.356;10.864;2022-08-19T02:31:51;17.80;99.90
32470;DHT22;18925;48.356;10.864;2022-08-19T02:32:21;17.80;99.90
32470;DHT22;18925;48.356;10.864;2022-08-19T02:32:52;17.80;99.90
32470;DHT22;18925;48.356;10.864;2022-08-19T02:33:23;17.90;99.90
32470;DHT22;18925;48.356;10.864;2022-08-19T02:33:55;17.90;99.90
32470;DHT22;18925;48.356;10.864;2022-08-19T02:34:26;17.90;99.90
32470;DHT22;18925;48.356;10.864;2022-08-19T02:34:56;17.90;99.90
32470;DHT22;18925;48.356;10.864;2022-08-19T02:35:27;17.90;99.90
32470;DHT22;18925;48.356;10.864;2022-08-19T02:35:58;17.90;99.90
32470;DHT22;18925;48.356;10.864;2022-08-19T02:36:28;17.90;99.90
32470;DHT22;18925;48.356;10.864;2022-08-19T02:36:59;17.80;99.90
32470;DHT22;18925;48.356;10.864;2022-08-19T02:37:30;17.80;99.90
32470;DHT22;18925;48.356;10.864;2022-08-19T02:38:19;17.90;99.90
32470;DHT22;18925;48.356;10.864;2022-08-19T02:38:56;17.90;99.90
32470;DHT22;18925;48.356;10.864;2022-08-19T02:39:27;17.90;99.90
32470;DHT22;18925;48.356;10.864;2022-08-19T02:39:58;17.80;99.90
32470;DHT22;18925;48.356;10.864;2022-08-19T02:40:30;17.80;99.90
32470;DHT22;18925;48.356;10.864;2022-08-19T02:41:07;17.80;99.90
32470;DHT22;18925;48.356;10.864;2022-08-19T02:41:39;17.80;99.90
32470;DHT22;18925;48.356;10.864;2022-08-19T02:42:10;17.80;99.90
32470;DHT22;18925;48.356;10.864;2022-08-19T02:42:40;17.80;99.90
32470;DHT22;18925;48.356;10.864;2022-08-19T02:43:13;17.80;99.90
32470;DHT22;18925;48.356;10.864;2022-08-19T02:43:44;17.80;99.90
32470;DHT22;18925;48.356;10.864;2022-08-19T02:44:14;17.70;99.90
32470;DHT22;18925;48.356;10.864;2022-08-19T02:44:45;17.70;99.90
32470;DHT22;18925;48.356;10.864;2022-08-19T02:45:16;17.70;99.90
32470;DHT22;18925;48.356;10.864;2022-08-19T02:45:47;17.70;99.90
32470;DHT22;18925;48.356;10.864;2022-08-19T02:46:22;17.70;99.90
32470;DHT22;18925;48.356;10.864;2022-08-19T02:46:53;17.70;99.90
32470;DHT22;18925;48.356;10.864;2022-08-19T02:47:24;17.70;99.90
32470;DHT22;18925;48.356;10.864;2022-08-19T02:47:54;17.70;99.90
32470;DHT22;18925;48.356;10.864;2022-08-19T02:48:27;17.70;99.90
32470;DHT22;18925;48.356;10.864;2022-08-19T02:49:05;17.70;99.90
32470;DHT22;18925;48.356;10.864;2022-08-19T02:49:36;17.70;99.90
32470;DHT22;18925;48.356;10.864;2022-08-19T02:50:07;17.70;99.90
32470;DHT22;18925;48.356;10.864;2022-08-19T02:50:39;17.70;99.90
32470;DHT22;18925;48.356;10.864;2022-08-19T02:51:16;17.70;99.90
32470;DHT22;18925;48.356;10.864;2022-08-19T02:51:47;17.70;99.90
32470;DHT22;18925;48.356;10.864;2022-08-19T02:52:18;17.70;99.90
32470;DHT22;18925;48.356;10.864;2022-08-19T02:52:49;17.70;99.90
32470;DHT22;18925;48.356;10.864;2022-08-19T02:53:19;17.70;99.90
32470;DHT22;18925;48.356;10.864;2022-08-19T02:53:53;17.60;99.90
32470;DHT22;18925;48.356;10.864;2022-08-19T02:54:23;17.70;99.90
32470;DHT22;18925;48.356;10.864;2022-08-19T02:54:54;17.60;99.90
32470;DHT22;18925;48.356;10.864;2022-08-19T02:55:27;17.60;99.90
32470;DHT22;18925;48.356;10.864;2022-08-19T02:55:58;17.60;99.90
32470;DHT22;18925;48.356;10.864;2022-08-19T02:56:29;17.60;99.90
32470;DHT22;18925;48.356;10.864;2022-08-19T02:57:01;17.50;99.90
32470;DHT22;18925;48.356;10.864;2022-08-19T02:57:31;17.60;99.90
32470;DHT22;18925;48.356;10.864;2022-08-19T02:58:02;17.60;99.90
32470;DHT22;18925;48.356;10.864;2022-08-19T02:58:33;17.60;99.90
32470;DHT22;18925;48.356;10.864;2022-08-19T02:59:06;17.60;99.90
32470;DHT22;18925;48.356;10.864;2022-08-19T02:59:38;17.60;99.90
32470;DHT22;18925;48.356;10.864;2022-08-19T03:00:10;17.70;99.90
32470;DHT22;18925;48.356;10.864;2022-08-19T03:00:51;17.60;99.90
32470;DHT22;18925;48.356;10.864;2022-08-19T03:01:22;17.60;99.90
32470;DHT22;18925;48.356;10.864;2022-08-19T03:01:53;17.70;99.90
32470;DHT22;18925;48.356;10.864;2022-08-19T03:02:24;17.70;99.90
32470;DHT22;18925;48.356;10.864;2022-08-19T03:02:55;17.70;99.90
32470;DHT22;18925;48.356;10.864;2022-08-19T03:03:26;17.70;99.90
32470;DHT22;18925;48.356;10.864;2022-08-19T03:03:59;17.70;99.90
32470;DHT22;18925;48.356;10.864;2022-08-19T03:04:30;17.60;99.90
32470;DHT22;18925;48.356;10.864;2022-08-19T03:05:03;17.60;99.90
32470;DHT22;18925;48.356;10.864;2022-08-19T03:05:33;17.60;99.90
32470;DHT22;18925;48.356;10.864;2022-08-19T03:06:10;17.60;99.90
32470;DHT22;18925;48.356;10.864;2022-08-19T03:06:44;17.60;99.90
32470;DHT22;18925;48.356;10.864;2022-08-19T03:07:15;17.70;99.90
32470;DHT22;18925;48.356;10.864;2022-08-19T03:07:46;17.70;99.90
32470;DHT22;18925;48.356;10.864;2022-08-19T03:08:17;17.70;99.90
32470;DHT22;18925;48.356;10.864;2022-08-19T03:08:48;17.70;99.90
32470;DHT22;18925;48.356;10.864;2022-08-19T03:09:22;17.70;99.90
32470;DHT22;18925;48.356;10.864;2022-08-19T03:09:53;17.70;99.90
32470;DHT22;18925;48.356;10.864;2022-08-19T03:10:23;17.70;99.90
32470;DHT22;18925;48.356;10.864;2022-08-19T03:10:54;17.70;99.90
32470;DHT22;18925;48.356;10.864;2022-08-19T03:11:31;17.70;99.90
32470;DHT22;18925;48.356;10.864;2022-08-19T03:12:05;17.70;99.90
32470;DHT22;18925;48.356;10.864;2022-08-19T03:12:37;17.70;99.90
32470;DHT22;18925;48.356;10.864;2022-08-19T03:13:08;17.70;99.90
32470;DHT22;18925;48.356;10.864;2022-08-19T03:13:39;17.70;99.90
32470;DHT22;18925;48.356;10.864;2022-08-19T03:14:10;17.70;99.90
32470;DHT22;18925;48.356;10.864;2022-08-19T03:14:41;17.70;99.90
32470;DHT22;18925;48.356;10.864;2022-08-19T03:15:12;17.70;99.90
32470;DHT22;18925;48.356;10.864;2022-08-19T03:15:44;17.70;99.90
32470;DHT22;18925;48.356;10.864;2022-08-19T03:16:16;17.70;99.90
32470;DHT22;18925;48.356;10.864;2022-08-19T03:16:50;17.70;99.90
32470;DHT22;18925;48.356;10.864;2022-08-19T03:17:21;17.80;99.90
32470;DHT22;18925;48.356;10.864;2022-08-19T03:17:51;17.70;99.90
32470;DHT22;18925;48.356;10.864;2022-08-19T03:18:22;17.70;99.90
32470;DHT22;18925;48.356;10.864;2022-08-19T03:18:53;17.70;99.90
32470;DHT22;18925;48.356;10.864;2022-08-19T03:19:26;17.70;99.90
32470;DHT22;18925;48.356;10.864;2022-08-19T03:19:57;17.70;99.90
32470;DHT22;18925;48.356;10.864;2022-08-19T03:20:28;17.70;99.90
32470;DHT22;18925;48.356;10.864;2022-08-19T03:20:58;17.70;99.90